Lock Haven, PA

3:26 PM EST on January 19, 2017 (GMT -0500)
297 McElhattan Drive | | Change Station

Elev 568 ft 41.16 °N, 77.36 °W | Updated 13 minutes ago

Overcast
Overcast
45.0 °F
Feels Like 45 °F
N
3.0
Wind Variable Wind from WSW
Gusts 7.0 mph

Today
High -- | Low -- °F
--% Chance of Precip.
Yesterday
High -- | Low -- °F
Precip. -- in
Pressure 29.99 in
Visibility 10.0 miles
Clouds Scattered Clouds 2800 ft
Windchill 45 °F
Dew Point 35 °F
Humidity 67%
Rainfall 0.00 in
Snow Depth Not available.
7:30 AM 5:10 PM
Waning Gibbous, 51% visible
SPECI KIPT 192001Z VRB05KT 10SM SCT028 08/01 A2999 RMK AO2 T00830006
Pressure 29.99 in
Visibility 10.0 miles
Clouds Scattered Clouds 2800 ft
Windchill 45 °F
Dew Point 35 °F
Humidity 67%
Rainfall 0.00 in
Snow Depth Not available.
7:30 AM 5:10 PM
Waning Gibbous, 51% visible
SPECI KIPT 192001Z VRB05KT 10SM SCT028 08/01 A2999 RMK AO2 T00830006

Get Your Daily Forecast Email!

Thanks for signing up!

Be on the lookout for a verification email in your inbox.

You'll start receiving the daily forecast at 8 AM.

×

10-Day Weather Forecast

Almanac

Astronomy

Jan. 19, 2017 Rise Set
Actual Time
Civil Twilight
Nautical Twilight
Astronomical Twilight
Moon
Length of Visible Light
Length of Day
Tomorrow will be .
, % of the Moon is Illuminated

Today's Extremes

State Highs State Lows

Community

WunderPhotos

Upload Photos

1,962,540 photos uploaded!

WunderBlog® & News

Nearby

Air Quality

  Air Quality AQ Index Pollutant
Not available.

Snow Depth

Station Depth Elevation

Earthquake Activity

City Distance Mag. Time & Date
Minimum magnitude displayed is 2.5.

Coastal Water Temperatures

Place Temperature

Stations

Nearby Weather Stations

Station Location Temp. Windchill Dew Point Humidity Wind Precip. Elev Updated Type
                   

Watches & Warnings

There are currently no watches in effect.